Time;durP1;ratioP1;P1;durP2;ratioP2;P2;SDS_P1;SDS_P2;PMS_P1;PMS_P2;Temp;Humidity;BMP_temperature;BMP_pressure;BME280_temperature;BME280_humidity;BME280_pressure;Samples;Min_cycle;Max_cycle;Signal;HPM_P1;HPM_P2
2022/12/30 00:00:16;;;;;;;2.72;0.50;;;;;;;7.27;99.96;98279.22;5030530;28;20128;-45
2022/12/30 00:06:33;;;;;;;4.88;0.77;;;;;;;7.55;99.89;98258.53;5030235;28;20033;-55
2022/12/30 00:33:08;;;;;;;2.60;0.70;;;;;;;8.09;99.25;98206.03;5023672;28;20099;-45
2022/12/30 00:35:37;;;;;;;1.63;1.25;;;;;;;8.12;99.33;98193.44;5030062;28;20446;-44
2022/12/30 00:38:05;;;;;;;3.83;0.77;;;;;;;8.14;99.24;98182.78;5030079;28;20049;-45
2022/12/30 00:44:23;;;;;;;1.42;0.30;;;;;;;8.16;99.34;98188.69;5020474;28;20043;-46
2022/12/30 00:47:11;;;;;;;3.25;0.43;;;;;;;8.16;99.39;98183.97;5035939;28;20049;-45
2022/12/30 00:56:14;;;;;;;1.77;0.40;;;;;;;8.22;99.56;98154.88;5027843;28;20045;-44
2022/12/30 00:58:40;;;;;;;;;;;;;;;8.22;99.51;98134.78;5044690;28;20049;-44
2022/12/30 01:01:07;;;;;;;1.48;0.28;;;;;;;8.21;99.51;98125.72;5034610;28;19943;-45
2022/12/30 01:03:34;;;;;;;1.73;0.50;;;;;;;8.20;99.65;98128.88;5046479;28;20038;-46
2022/12/30 01:06:05;;;;;;;0.32;0.20;;;;;;;8.25;99.81;98104.47;5034398;28;20503;-44
2022/12/30 01:08:32;;;;;;;0.98;0.82;;;;;;;8.28;99.68;98100.97;5034602;28;20033;-45
2022/12/30 01:12:07;;;;;;;1.83;0.28;;;;;;;8.29;99.53;98094.25;5036355;28;20089;-45
2022/12/30 01:14:39;;;;;;;;;;;;;;;8.32;99.72;98067.88;5034268;28;20084;-44
2022/12/30 01:17:24;;;;;;;1.40;0.20;;;;;;;8.39;99.70;98084.41;5033334;28;19970;-46
2022/12/30 01:19:51;;;;;;;1.55;0.25;;;;;;;8.39;99.63;98060.38;5035493;28;20499;-46
2022/12/30 01:22:38;;;;;;;0.20;0.17;;;;;;;8.41;99.50;98071.03;5033653;28;20040;-45
2022/12/30 01:29:23;;;;;;;1.20;0.30;;;;;;;8.40;99.76;98053.69;5033997;28;20103;-48
2022/12/30 01:32:06;;;;;;;0.40;0.20;;;;;;;8.40;99.86;98041.88;5030802;28;20065;-45
2022/12/30 01:34:33;;;;;;;;;;;;;;;8.43;99.99;98044.63;5034609;28;20128;-46
2022/12/30 01:37:00;;;;;;;1.02;0.20;;;;;;;8.47;100.00;98033.59;5033758;28;21440;-45
2022/12/30 01:39:27;;;;;;;0.50;0.15;;;;;;;8.51;99.94;98006.78;5040275;28;20109;-44
2022/12/30 01:42:00;;;;;;;2.05;0.30;;;;;;;8.54;99.97;98019.78;5032894;28;20049;-45
2022/12/30 01:44:56;;;;;;;1.70;0.28;;;;;;;8.55;99.88;98007.59;5031496;28;20057;-45
2022/12/30 01:50:35;;;;;;;2.03;0.40;;;;;;;8.61;100.00;97978.41;5032174;28;20045;-44
2022/12/30 01:53:04;;;;;;;0.73;0.20;;;;;;;8.64;100.00;97980.34;5033043;28;20091;-45
2022/12/30 01:55:41;;;;;;;4.45;0.60;;;;;;;8.68;100.00;97983.91;5031632;28;20049;-44
2022/12/30 01:58:18;;;;;;;0.80;0.40;;;;;;;8.68;100.00;97988.63;5044776;28;20037;-44
2022/12/30 02:01:02;;;;;;;0.77;0.10;;;;;;;8.68;100.00;97983.91;5033965;28;20059;-45
2022/12/30 02:04:07;;;;;;;1.58;0.35;;;;;;;8.72;100.00;97979.16;5022409;28;20187;-44
2022/12/30 02:07:11;;;;;;;1.33;0.30;;;;;;;8.74;100.00;97965.72;5032080;28;20069;-45
2022/12/30 02:09:38;;;;;;;1.17;0.30;;;;;;;8.80;100.00;97969.66;5033230;28;20041;-46
2022/12/30 02:12:16;;;;;;;1.10;0.20;;;;;;;8.86;100.00;97956.25;5032670;28;20495;-45
2022/12/30 02:14:45;;;;;;;1.05;0.25;;;;;;;8.91;99.96;97956.59;5032493;28;20042;-45
2022/12/30 02:17:23;;;;;;;2.47;0.10;;;;;;;8.93;99.78;97950.69;5034077;28;20080;-44
2022/12/30 02:20:53;;;;;;;1.55;0.20;;;;;;;8.96;99.99;97938.84;5033292;28;20073;-45
2022/12/30 02:23:32;;;;;;;0.20;0.10;;;;;;;8.94;99.78;97930.97;5031634;28;20491;-43
2022/12/30 02:33:42;;;;;;;0.45;0.10;;;;;;;8.99;99.71;97907.69;5021557;28;20476;-44
2022/12/30 02:36:27;;;;;;;0.32;0.10;;;;;;;9.00;99.72;97896.22;5026681;28;20438;-47
2022/12/30 02:45:56;;;;;;;0.98;0.63;;;;;;;9.01;99.56;97886.78;5029630;28;20046;-44
2022/12/30 02:48:57;;;;;;;0.08;0.08;;;;;;;9.04;99.64;97885.19;5027220;28;20120;-45
2022/12/30 02:54:10;;;;;;;0.55;0.28;;;;;;;9.12;99.52;97876.47;5032874;28;20045;-44
2022/12/30 02:56:51;;;;;;;0.95;0.50;;;;;;;9.15;99.68;97874.84;5034802;28;20132;-44
2022/12/30 03:09:42;;;;;;;0.43;0.20;;;;;;;9.27;99.20;97846.75;5051789;28;20072;-45
2022/12/30 03:12:19;;;;;;;2.83;0.10;;;;;;;9.30;98.96;97826.63;5044042;28;20379;-45
2022/12/30 03:18:51;;;;;;;0.52;0.10;;;;;;;9.32;99.17;97809.66;5052037;28;20070;-45
2022/12/30 03:21:19;;;;;;;0.10;0.10;;;;;;;9.31;99.08;97783.25;5047252;28;20076;-45
2022/12/30 03:27:03;;;;;;;0.73;0.20;;;;;;;9.33;99.40;97787.16;5048103;28;20056;-44
2022/12/30 03:29:53;;;;;;;1.33;0.20;;;;;;;9.36;99.29;97791.09;5046661;28;20047;-47
2022/12/30 03:32:22;;;;;;;0.98;0.20;;;;;;;9.37;99.30;97765.06;5047503;28;20045;-47
2022/12/30 03:34:50;;;;;;;2.60;0.25;;;;;;;9.38;99.24;97764.63;5047394;28;20049;-47
2022/12/30 03:44:11;;;;;;;0.30;0.20;;;;;;;9.47;99.22;97753.09;5049598;28;20041;-49
2022/12/30 03:47:31;;;;;;;1.02;0.22;;;;;;;9.49;99.15;97756.25;5046492;28;20037;-51
2022/12/30 03:50:19;;;;;;;0.00;0.00;;;;;;;9.52;99.05;97733.31;5048731;28;20478;-47
2022/12/30 03:52:45;;;;;;;0.75;0.17;;;;;;;9.53;98.93;97743.19;5046957;28;20048;-47
2022/12/30 03:55:12;;;;;;;1.05;0.85;;;;;;;9.50;99.06;97719.16;5049656;28;20135;-48
2022/12/30 03:57:40;;;;;;;0.57;0.20;;;;;;;9.49;99.02;97725.84;5053102;28;20041;-47
2022/12/30 04:00:27;;;;;;;0.63;0.13;;;;;;;9.52;99.28;97711.22;5040027;28;20049;-47
2022/12/30 04:02:54;;;;;;;0.05;0.00;;;;;;;9.53;99.43;97701.78;5062636;28;20051;-47
2022/12/30 04:05:21;;;;;;;5.00;0.20;;;;;;;9.52;99.17;97691.91;5049828;28;20041;-47
2022/12/30 04:07:47;;;;;;;0.00;0.00;;;;;;;9.51;99.02;97690.31;5047434;28;20067;-47
2022/12/30 04:17:57;;;;;;;0.00;0.00;;;;;;;9.52;99.16;97689.94;5048929;28;20057;-47
2022/12/30 04:20:34;;;;;;;0.10;0.03;;;;;;;9.55;99.10;97677.28;5046228;28;20452;-48
2022/12/30 04:23:00;;;;;;;0.10;0.00;;;;;;;9.53;98.87;97688.72;5044238;28;20049;-47
2022/12/30 04:28:39;;;;;;;1.35;0.00;;;;;;;9.50;99.25;97655.63;5049009;28;20037;-48
2022/12/30 04:34:17;;;;;;;1.10;0.00;;;;;;;9.52;98.97;97656.00;5047809;28;20045;-47
2022/12/30 04:36:43;;;;;;;0.20;0.08;;;;;;;9.51;99.00;97648.91;5049573;28;20045;-51
2022/12/30 04:39:11;;;;;;;0.32;0.00;;;;;;;9.52;99.17;97653.25;5041618;28;20041;-47
2022/12/30 04:41:57;;;;;;;2.45;0.20;;;;;;;9.51;99.29;97654.44;5049987;28;20068;-51
2022/12/30 04:44:23;;;;;;;0.45;0.10;;;;;;;9.52;99.39;97639.44;5043089;28;20033;-47
2022/12/30 04:46:50;;;;;;;1.52;0.10;;;;;;;9.53;99.26;97625.19;5048564;28;20132;-48
2022/12/30 04:49:50;;;;;;;0.85;0.20;;;;;;;9.54;99.34;97626.00;5046978;28;21682;-47
2022/12/30 04:52:17;;;;;;;0.65;0.10;;;;;;;9.52;99.23;97611.81;5049543;28;20076;-47
2022/12/30 04:55:04;;;;;;;2.08;1.08;;;;;;;9.50;99.14;97622.50;5048581;28;20494;-47
2022/12/30 04:57:31;;;;;;;0.55;0.55;;;;;;;9.50;99.38;97616.97;5051971;28;20049;-47
2022/12/30 04:59:58;;;;;;;0.50;0.10;;;;;;;9.50;99.32;97617.78;5049662;28;20040;-47
2022/12/30 05:02:24;;;;;;;2.65;0.20;;;;;;;9.47;99.56;97615.03;5049298;28;20053;-47
2022/12/30 05:04:55;;;;;;;0.32;0.10;;;;;;;9.46;99.54;97621.75;5050972;28;20041;-48
2022/12/30 05:07:22;;;;;;;0.30;0.10;;;;;;;9.46;99.54;97613.47;5038990;28;20388;-47
2022/12/30 05:10:45;;;;;;;0.82;0.10;;;;;;;9.42;99.60;97610.78;5050120;28;20052;-52
2022/12/30 05:13:12;;;;;;;0.10;0.00;;;;;;;9.39;99.97;97602.53;5060596;28;20060;-47
2022/12/30 05:15:54;;;;;;;0.43;0.17;;;;;;;9.37;99.98;97621.47;5045585;28;20049;-48
2022/12/30 05:18:21;;;;;;;0.30;0.00;;;;;;;9.38;100.00;97596.22;5048174;28;20124;-46
2022/12/30 05:22:00;;;;;;;1.35;0.20;;;;;;;9.36;100.00;97608.88;5046838;28;20054;-48
2022/12/30 05:28:38;;;;;;;0.43;0.13;;;;;;;9.28;100.00;97591.59;5040362;28;20041;-47
2022/12/30 05:38:52;;;;;;;0.40;0.10;;;;;;;9.18;100.00;97571.22;5048256;28;20041;-48
2022/12/30 05:41:18;;;;;;;1.52;0.10;;;;;;;9.17;100.00;97561.38;5046288;28;20076;-49
2022/12/30 05:43:48;;;;;;;1.55;0.10;;;;;;;9.17;100.00;97555.06;5047849;28;20045;-49
2022/12/30 05:46:15;;;;;;;1.00;0.82;;;;;;;9.18;100.00;97549.16;5050451;28;20067;-47
2022/12/30 05:48:47;;;;;;;1.77;0.10;;;;;;;9.19;100.00;97560.94;5050487;28;20091;-47
2022/12/30 05:51:14;;;;;;;0.95;0.20;;;;;;;9.19;100.00;97545.19;5051581;28;20497;-47
2022/12/30 06:01:12;;;;;;;7.90;0.38;;;;;;;9.21;100.00;97532.94;5047066;28;20041;-47
2022/12/30 06:03:39;;;;;;;0.40;0.10;;;;;;;9.21;100.00;97519.16;5065312;28;20502;-46
2022/12/30 06:06:08;;;;;;;2.70;0.10;;;;;;;9.23;100.00;97520.31;5053063;28;20034;-47
2022/12/30 06:08:38;;;;;;;0.85;0.20;;;;;;;9.24;100.00;97512.81;5053145;28;20552;-46
2022/12/30 06:11:05;;;;;;;1.17;0.28;;;;;;;9.24;100.00;97513.56;5052996;28;20052;-47
2022/12/30 06:13:32;;;;;;;2.15;0.30;;;;;;;9.26;100.00;97505.69;5053765;28;20048;-47
2022/12/30 06:15:59;;;;;;;0.10;0.10;;;;;;;9.28;100.00;97502.50;5053131;28;20499;-46
2022/12/30 06:18:25;;;;;;;2.30;0.40;;;;;;;9.28;100.00;97499.72;5052520;28;20033;-47
2022/12/30 06:20:54;;;;;;;4.28;0.22;;;;;;;9.31;100.00;97485.88;5050507;28;20049;-46
2022/12/30 06:23:21;;;;;;;1.27;0.08;;;;;;;9.33;100.00;97491.75;5053373;28;20115;-46
2022/12/30 06:25:56;;;;;;;0.10;0.05;;;;;;;9.35;100.00;97486.59;5053143;28;20041;-47
2022/12/30 06:28:24;;;;;;;0.17;0.17;;;;;;;9.38;100.00;97469.22;5049851;28;20040;-46
2022/12/30 06:30:50;;;;;;;2.55;0.17;;;;;;;9.39;100.00;97461.72;5045906;28;20045;-46
2022/12/30 06:34:00;;;;;;;0.30;0.25;;;;;;;9.38;100.00;97474.72;5051764;28;20049;-46
2022/12/30 06:36:27;;;;;;;2.55;0.68;;;;;;;9.36;100.00;97455.03;5051043;28;20124;-46
2022/12/30 06:38:54;;;;;;;0.28;0.05;;;;;;;9.37;100.00;97455.84;5045753;28;20087;-54
2022/12/30 06:41:49;;;;;;;0.10;0.10;;;;;;;9.38;100.00;97440.81;5048275;28;20486;-46
2022/12/30 06:48:24;;;;;;;0.15;0.10;;;;;;;9.37;100.00;97423.47;5047007;28;20452;-46
2022/12/30 06:55:30;;;;;;;0.00;0.00;;;;;;;9.37;100.00;97419.94;5045568;28;20482;-47
2022/12/30 07:01:47;;;;;;;0.55;0.10;;;;;;;9.32;100.00;97415.66;5052196;28;20082;-49
2022/12/30 07:04:14;;;;;;;1.55;0.10;;;;;;;9.30;100.00;97404.25;5026288;28;20042;-46
2022/12/30 07:10:09;;;;;;;0.45;0.30;;;;;;;9.30;100.00;97397.94;5028702;28;20052;-46
2022/12/30 07:12:36;;;;;;;1.23;0.47;;;;;;;9.31;100.00;97396.75;5028094;28;20029;-47
2022/12/30 07:15:12;;;;;;;1.95;0.20;;;;;;;9.35;100.00;97389.19;5020989;28;20057;-50
2022/12/30 07:17:39;;;;;;;1.15;0.20;;;;;;;9.36;100.00;97399.03;5027054;28;20096;-49
2022/12/30 07:27:10;;;;;;;;;;;;;;;9.34;100.00;97363.59;5030453;28;20511;-48
2022/12/30 07:29:38;;;;;;;0.60;0.20;;;;;;;9.34;100.00;97360.03;5030471;28;19921;-47
2022/12/30 07:36:21;;;;;;;0.43;0.10;;;;;;;9.31;100.00;97338.78;5027237;28;20045;-46
2022/12/30 07:38:47;;;;;;;0.40;0.10;;;;;;;9.31;100.00;97339.59;5029980;28;20471;-47
2022/12/30 07:41:14;;;;;;;0.38;0.10;;;;;;;9.31;100.00;97325.78;5026820;28;20410;-47
2022/12/30 07:47:36;;;;;;;0.00;0.00;;;;;;;9.33;100.00;97323.38;5026276;28;20048;-47
2022/12/30 07:50:06;;;;;;;0.30;0.20;;;;;;;9.35;100.00;97320.19;5028509;28;20045;-46
2022/12/30 07:52:46;;;;;;;0.20;0.10;;;;;;;9.36;100.00;97314.25;5029156;28;20037;-47
2022/12/30 07:55:12;;;;;;;0.52;0.00;;;;;;;9.38;100.00;97305.53;5027333;28;20131;-47
2022/12/30 07:57:39;;;;;;;0.05;0.05;;;;;;;9.40;100.00;97305.91;5028591;28;20045;-47
2022/12/30 08:00:09;;;;;;;1.00;0.00;;;;;;;9.41;100.00;97296.41;5029260;28;20431;-47
2022/12/30 08:02:36;;;;;;;0.40;0.10;;;;;;;9.42;100.00;97298.00;5049388;28;20044;-46
2022/12/30 08:05:03;;;;;;;0.17;0.00;;;;;;;9.42;100.00;97301.53;5048860;28;20479;-46
2022/12/30 08:07:30;;;;;;;0.10;0.00;;;;;;;9.43;100.00;97294.00;5045272;28;20049;-48
2022/12/30 08:09:57;;;;;;;0.00;0.00;;;;;;;9.42;100.00;97293.25;5050540;28;20505;-46
2022/12/30 08:13:16;;;;;;;0.63;0.10;;;;;;;9.42;100.00;97287.72;5051265;28;20037;-46
2022/12/30 08:15:55;;;;;;;0.10;0.10;;;;;;;9.42;100.00;97286.94;5050135;28;20037;-48
2022/12/30 08:18:21;;;;;;;0.90;0.20;;;;;;;9.39;100.00;97272.00;5049607;28;20045;-48
2022/12/30 08:20:53;;;;;;;0.98;0.35;;;;;;;9.39;100.00;97276.75;5050416;28;20083;-46
2022/12/30 08:23:20;;;;;;;0.73;0.50;;;;;;;9.39;100.00;97285.03;5050558;28;20067;-47
2022/12/30 08:25:47;;;;;;;0.52;0.00;;;;;;;9.40;100.00;97298.41;5050988;28;20072;-46
2022/12/30 08:28:19;;;;;;;0.30;0.10;;;;;;;9.47;100.00;97294.75;5049158;28;20491;-47
2022/12/30 08:30:46;;;;;;;0.75;0.20;;;;;;;9.54;100.00;97300.13;5050565;28;20498;-46
2022/12/30 08:33:24;;;;;;;0.00;0.00;;;;;;;9.60;100.00;97288.19;5049293;28;20037;-46
2022/12/30 08:35:51;;;;;;;0.10;0.10;;;;;;;9.64;100.00;97275.09;5048744;28;20055;-47
2022/12/30 08:38:17;;;;;;;0.00;0.00;;;;;;;9.67;100.00;97292.78;5046290;28;20051;-47
2022/12/30 08:41:35;;;;;;;0.08;0.05;;;;;;;9.72;100.00;97300.59;5047255;28;20044;-46
2022/12/30 08:44:04;;;;;;;0.47;0.00;;;;;;;9.74;100.00;97298.19;5044442;28;20037;-46
2022/12/30 08:46:34;;;;;;;1.20;0.20;;;;;;;9.74;100.00;97314.78;5045118;28;20076;-49
2022/12/30 08:52:51;;;;;;;0.10;0.00;;;;;;;9.59;100.00;97335.53;5045148;28;20079;-47
2022/12/30 08:58:45;;;;;;;0.38;0.10;;;;;;;9.32;100.00;97359.69;5045402;28;20052;-47
2022/12/30 09:01:22;;;;;;;0.40;0.10;;;;;;;9.24;100.00;97363.75;5049008;28;20509;-46
2022/12/30 09:04:53;;;;;;;0.95;0.10;;;;;;;9.14;100.00;97371.78;5044100;28;20057;-46
2022/12/30 09:07:52;;;;;;;0.00;0.00;;;;;;;9.02;100.00;97342.00;5051443;28;20482;-46
2022/12/30 09:10:25;;;;;;;0.60;0.13;;;;;;;8.94;100.00;97334.25;5049062;28;20067;-47
2022/12/30 09:12:52;;;;;;;0.03;0.00;;;;;;;8.87;100.00;97329.59;5049338;28;20045;-47
2022/12/30 09:15:19;;;;;;;0.45;0.03;;;;;;;8.82;100.00;97330.06;5051709;28;20162;-47
2022/12/30 09:18:46;;;;;;;0.57;0.10;;;;;;;8.76;100.00;97323.50;5045564;28;20041;-47
2022/12/30 09:21:12;;;;;;;0.57;0.10;;;;;;;8.71;100.00;97312.13;5053818;28;20471;-47
2022/12/30 09:23:39;;;;;;;0.50;0.08;;;;;;;8.66;100.00;97335.44;5042892;28;20124;-47
2022/12/30 09:26:08;;;;;;;0.40;0.10;;;;;;;8.62;100.00;97345.75;5054286;28;20040;-48
2022/12/30 09:28:35;;;;;;;0.50;0.28;;;;;;;8.59;100.00;97343.81;5053644;28;20051;-47
2022/12/30 09:31:05;;;;;;;1.27;0.10;;;;;;;8.55;100.00;97343.84;5040393;28;20056;-47
2022/12/30 09:33:32;;;;;;;0.68;0.10;;;;;;;8.54;100.00;97350.56;5052629;28;20066;-47
2022/12/30 09:35:59;;;;;;;0.20;0.20;;;;;;;8.52;100.00;97346.66;5052706;28;20513;-47
2022/12/30 09:38:27;;;;;;;0.20;0.20;;;;;;;8.49;100.00;97340.00;5052732;28;20057;-47
2022/12/30 09:44:58;;;;;;;0.20;0.20;;;;;;;8.46;100.00;97342.81;5042818;28;20060;-47
2022/12/30 09:47:35;;;;;;;1.95;0.20;;;;;;;8.47;100.00;97372.69;5042480;28;20068;-47
2022/12/30 09:50:05;;;;;;;;;;;;;;;8.49;100.00;97369.53;5054089;28;20029;-48
2022/12/30 09:53:01;;;;;;;2.28;0.52;;;;;;;8.52;100.00;97382.50;5051893;28;20289;-47
2022/12/30 09:55:33;;;;;;;2.42;0.20;;;;;;;8.52;100.00;97382.50;5053137;28;20127;-49
2022/12/30 09:58:08;;;;;;;2.58;0.35;;;;;;;8.51;100.00;97383.69;5058517;28;20044;-47
2022/12/30 10:00:35;;;;;;;0.30;0.20;;;;;;;8.50;100.00;97382.13;5052640;28;20094;-47
2022/12/30 10:03:21;;;;;;;0.90;0.40;;;;;;;8.50;100.00;97387.63;5046615;28;20156;-48
2022/12/30 10:06:47;;;;;;;2.08;1.15;;;;;;;8.49;100.00;97380.56;5047389;28;20094;-50
2022/12/30 10:09:15;;;;;;;3.47;2.20;;;;;;;8.47;100.00;97371.94;5046416;28;20186;-49
2022/12/30 10:19:08;;;;;;;2.72;1.60;;;;;;;8.33;100.00;97383.91;5053972;28;20033;-49
2022/12/30 10:22:19;;;;;;;6.93;2.50;;;;;;;8.31;100.00;97391.78;5055727;28;20057;-48
2022/12/30 10:29:20;;;;;;;4.45;1.00;;;;;;;8.28;100.00;97392.63;5049013;28;20033;-48
2022/12/30 10:31:49;;;;;;;5.15;1.38;;;;;;;8.29;100.00;97385.91;5045064;28;20082;-48
2022/12/30 10:34:17;;;;;;;5.88;1.88;;;;;;;8.31;100.00;97399.31;5050382;28;20037;-53
2022/12/30 10:37:01;;;;;;;7.60;0.90;;;;;;;8.32;100.00;97404.38;5048822;28;20045;-49
2022/12/30 10:39:36;;;;;;;4.80;1.00;;;;;;;8.31;100.00;97402.06;5046215;28;21413;-50
2022/12/30 10:46:05;;;;;;;6.15;1.10;;;;;;;8.24;100.00;97396.56;5049270;28;20041;-49
2022/12/30 10:48:59;;;;;;;25.60;10.65;;;;;;;8.21;100.00;97408.41;5046145;28;20055;-47
2022/12/30 10:51:26;;;;;;;2.97;1.20;;;;;;;8.20;100.00;97415.13;5040162;28;20506;-48
2022/12/30 10:53:54;;;;;;;9.38;1.60;;;;;;;8.18;100.00;97414.78;5049155;28;20048;-48
2022/12/30 10:56:40;;;;;;;5.22;0.90;;;;;;;8.17;100.00;97418.72;5046701;28;20045;-51
2022/12/30 11:07:13;;;;;;;11.75;1.20;;;;;;;8.19;100.00;97427.34;5044688;28;20140;-48
2022/12/30 11:09:40;;;;;;;6.40;1.17;;;;;;;8.19;100.00;97411.59;5045944;28;20041;-46
2022/12/30 11:20:47;;;;;;;7.38;0.75;;;;;;;8.17;100.00;97436.03;5049618;28;20433;-46
2022/12/30 11:23:31;;;;;;;10.02;1.58;;;;;;;8.19;100.00;97447.41;5048856;28;20045;-49
2022/12/30 11:26:19;;;;;;;5.45;2.30;;;;;;;8.20;100.00;97445.44;5047992;28;20044;-46
2022/12/30 11:32:26;;;;;;;6.25;1.08;;;;;;;8.22;100.00;97463.13;5046723;28;20067;-46
2022/12/30 11:49:35;;;;;;;14.55;2.15;;;;;;;8.23;100.00;97461.16;5051784;28;20059;-50
2022/12/30 11:52:23;;;;;;;8.65;2.35;;;;;;;8.24;100.00;97460.75;5057052;28;20060;-46
2022/12/30 11:54:59;;;;;;;6.60;1.30;;;;;;;8.26;100.00;97463.09;5049574;28;20068;-47
2022/12/30 12:01:10;;;;;;;3.97;1.20;;;;;;;8.21;99.75;97480.06;5045266;28;20120;-46
2022/12/30 12:07:52;;;;;;;8.02;1.80;;;;;;;8.15;99.22;97488.00;5041377;28;20136;-46
2022/12/30 12:10:28;;;;;;;11.45;3.10;;;;;;;8.13;99.10;97486.84;5019492;28;20133;-46
2022/12/30 12:21:07;;;;;;;11.95;1.83;;;;;;;8.10;97.95;97495.94;5024755;28;20059;-50
2022/12/30 12:23:36;;;;;;;13.13;1.65;;;;;;;8.09;97.86;97494.34;5030580;28;20107;-46
2022/12/30 12:30:14;;;;;;;5.13;1.38;;;;;;;8.09;97.53;97510.88;5027897;28;20368;-46
2022/12/30 12:33:11;;;;;;;8.10;1.65;;;;;;;8.08;97.52;97503.81;5009425;28;20056;-48
2022/12/30 12:40:26;;;;;;;8.38;1.88;;;;;;;8.19;96.99;97510.00;5020375;28;20076;-47
2022/12/30 12:43:08;;;;;;;7.63;2.20;;;;;;;8.20;96.76;97495.84;5027947;28;20042;-48
2022/12/30 12:45:54;;;;;;;6.15;1.20;;;;;;;8.21;96.77;97505.66;5002049;28;20053;-47
2022/12/30 12:49:00;;;;;;;9.10;1.95;;;;;;;8.22;96.59;97507.22;5031596;28;20049;-47
2022/12/30 12:52:26;;;;;;;7.10;1.48;;;;;;;8.26;96.43;97515.47;5026549;28;20042;-48
2022/12/30 12:55:19;;;;;;;7.18;1.65;;;;;;;8.26;96.28;97505.22;5030536;28;20041;-46
2022/12/30 13:09:13;;;;;;;5.88;1.55;;;;;;;8.29;95.15;97489.84;5041728;28;20406;-49
2022/12/30 13:15:44;;;;;;;19.88;3.47;;;;;;;8.27;94.70;97522.56;5052385;28;20029;-44
2022/12/30 13:18:21;;;;;;;9.98;1.60;;;;;;;8.29;94.52;97522.94;5052334;28;20076;-47
2022/12/30 13:28:31;;;;;;;16.33;4.40;;;;;;;8.41;93.67;97555.50;5047322;28;20044;-47
2022/12/30 13:34:50;;;;;;;9.60;1.95;;;;;;;8.42;93.33;97554.31;5046664;28;20041;-47
2022/12/30 13:37:39;;;;;;;9.15;1.02;;;;;;;8.46;93.16;97590.91;5050120;28;20041;-46
2022/12/30 13:48:01;;;;;;;9.32;2.22;;;;;;;8.35;92.09;97574.47;5041008;28;20071;-47
2022/12/30 13:51:06;;;;;;;8.65;1.45;;;;;;;8.29;91.89;97584.34;5046146;28;20067;-48
2022/12/30 13:54:15;;;;;;;8.38;1.55;;;;;;;8.25;91.40;97591.06;5047091;28;20057;-48
2022/12/30 13:57:26;;;;;;;4.82;2.10;;;;;;;8.24;91.36;97587.50;5055878;28;20046;-48
2022/12/30 14:00:10;;;;;;;4.38;1.00;;;;;;;8.25;91.33;97605.63;5050236;28;20128;-48
2022/12/30 14:02:56;;;;;;;5.20;1.38;;;;;;;8.24;90.80;97583.97;5056916;28;20041;-47
2022/12/30 14:10:14;;;;;;;5.10;1.10;;;;;;;8.09;89.99;97612.81;5048436;28;20045;-47
2022/12/30 14:12:43;;;;;;;6.65;1.77;;;;;;;8.03;89.84;97603.41;5029984;28;20041;-48
2022/12/30 14:19:16;;;;;;;8.05;1.38;;;;;;;7.93;89.52;97625.13;5018455;28;20483;-47
2022/12/30 14:22:03;;;;;;;8.02;2.90;;;;;;;7.89;89.54;97629.09;5013587;28;20045;-46
2022/12/30 14:24:29;;;;;;;8.05;1.30;;;;;;;7.89;89.30;97626.31;5013339;28;20088;-48
2022/12/30 14:26:58;;;;;;;5.78;1.48;;;;;;;7.91;89.53;97648.75;5014635;28;20096;-46
2022/12/30 14:33:02;;;;;;;2.22;1.05;;;;;;;7.86;88.92;97640.94;5013960;28;20040;-47
2022/12/30 14:35:29;;;;;;;5.28;1.17;;;;;;;7.85;88.91;97640.13;5028192;28;20045;-48
2022/12/30 14:38:28;;;;;;;4.90;1.35;;;;;;;7.82;88.86;97632.69;5032487;28;20049;-49
2022/12/30 14:41:07;;;;;;;6.88;1.52;;;;;;;7.79;89.08;97611.44;5034032;28;20037;-47
2022/12/30 14:43:49;;;;;;;5.15;1.50;;;;;;;7.79;88.94;97638.97;5034491;28;20056;-48
2022/12/30 14:46:37;;;;;;;5.90;1.83;;;;;;;7.78;89.11;97640.16;5032228;28;20049;-47
2022/12/30 14:49:37;;;;;;;5.13;1.73;;;;;;;7.77;88.84;97641.38;5032801;28;20045;-48
2022/12/30 14:52:51;;;;;;;9.85;2.10;;;;;;;7.77;88.96;97621.28;5032536;28;20117;-48
2022/12/30 14:55:22;;;;;;;8.18;2.85;;;;;;;7.76;88.85;97659.06;5031569;28;20463;-51
2022/12/30 14:58:00;;;;;;;7.73;2.47;;;;;;;7.77;88.79;97660.63;5045330;28;20041;-50
2022/12/30 15:00:30;;;;;;;7.35;2.70;;;;;;;7.75;88.74;97662.22;5051448;28;20483;-48
2022/12/30 15:02:59;;;;;;;7.18;2.30;;;;;;;7.71;88.60;97661.44;5038544;28;20444;-50
2022/12/30 15:05:46;;;;;;;9.65;1.98;;;;;;;7.66;88.80;97675.63;5033291;28;20048;-48
2022/12/30 15:08:15;;;;;;;7.15;1.70;;;;;;;7.62;88.68;97686.69;5033207;28;20045;-48
2022/12/30 15:10:56;;;;;;;5.50;1.35;;;;;;;7.59;88.63;97690.22;5041725;28;20067;-47
2022/12/30 15:13:23;;;;;;;7.03;2.10;;;;;;;7.57;88.32;97702.81;5053127;28;20059;-48
2022/12/30 15:15:54;;;;;;;11.80;3.53;;;;;;;7.57;88.29;97722.09;5053492;28;20052;-49
2022/12/30 15:18:40;;;;;;;8.90;2.27;;;;;;;7.57;87.92;97711.84;5052073;28;20080;-52
2022/12/30 15:21:26;;;;;;;6.35;1.92;;;;;;;7.58;87.82;97720.91;5052817;28;20382;-47
2022/12/30 15:24:03;;;;;;;11.25;3.15;;;;;;;7.58;87.87;97724.44;5052469;28;20139;-47
2022/12/30 15:26:35;;;;;;;7.38;2.72;;;;;;;7.59;87.90;97741.75;5037736;28;20059;-48
2022/12/30 15:29:18;;;;;;;7.40;2.33;;;;;;;7.56;87.67;97737.81;5031168;28;20045;-47
2022/12/30 15:31:59;;;;;;;6.18;2.20;;;;;;;7.54;87.81;97729.19;5032074;28;20088;-48
2022/12/30 15:34:47;;;;;;;9.05;3.28;;;;;;;7.50;87.78;97744.91;5032071;28;20053;-53
2022/12/30 15:37:21;;;;;;;14.77;3.65;;;;;;;7.49;87.72;97756.34;5032521;28;20518;-47
2022/12/30 15:39:54;;;;;;;9.93;2.65;;;;;;;7.48;87.69;97750.03;5032810;28;20049;-49
2022/12/30 15:42:39;;;;;;;5.30;2.25;;;;;;;7.45;87.59;97756.34;5034924;28;20102;-48
2022/12/30 15:49:20;;;;;;;7.78;1.52;;;;;;;7.40;87.58;97784.25;5044492;28;20048;-48
2022/12/30 15:52:29;;;;;;;8.07;2.35;;;;;;;7.38;87.52;97791.34;5049567;28;20441;-47
2022/12/30 16:06:27;;;;;;;5.85;1.52;;;;;;;7.31;87.38;97839.69;5044854;28;20037;-47
2022/12/30 16:12:44;;;;;;;8.93;2.72;;;;;;;7.30;87.24;97829.09;5041001;28;20056;-47
2022/12/30 16:19:42;;;;;;;11.95;2.95;;;;;;;7.32;87.38;97846.78;5044515;28;20121;-47
2022/12/30 16:22:24;;;;;;;11.63;4.38;;;;;;;7.33;87.46;97864.09;5048282;28;20128;-47
2022/12/30 16:28:44;;;;;;;11.93;4.13;;;;;;;7.28;87.68;97881.00;5057096;28;20494;-49
2022/12/30 16:31:13;;;;;;;17.27;3.85;;;;;;;7.25;87.77;97893.53;5052537;28;20368;-51
2022/12/30 16:41:38;;;;;;;11.32;3.42;;;;;;;7.15;88.19;97910.84;5044304;28;20033;-48
2022/12/30 16:48:07;;;;;;;17.27;4.18;;;;;;;7.12;88.33;97921.84;5042382;28;20080;-52
2022/12/30 16:50:41;;;;;;;7.65;2.25;;;;;;;7.09;88.58;97917.13;5048437;28;20071;-48
2022/12/30 16:57:45;;;;;;;10.23;2.70;;;;;;;7.07;88.72;97925.00;5042197;28;20178;-49
2022/12/30 17:00:18;;;;;;;10.00;3.05;;;;;;;7.07;88.88;97933.25;5045684;28;20033;-48
2022/12/30 17:11:11;;;;;;;14.85;4.20;;;;;;;7.03;89.27;97940.69;5044751;28;20453;-49
2022/12/30 17:19:33;;;;;;;13.52;3.85;;;;;;;7.02;89.29;97961.09;5043210;28;20041;-47
2022/12/30 17:34:57;;;;;;;8.30;2.80;;;;;;;6.98;89.21;98031.84;5039619;28;20056;-47
2022/12/30 17:45:49;;;;;;;15.40;3.17;;;;;;;6.94;88.99;98053.81;5049800;28;20045;-52
2022/12/30 17:48:18;;;;;;;12.68;3.58;;;;;;;6.93;89.04;98059.72;5061356;28;20110;-50
2022/12/30 17:50:46;;;;;;;20.60;5.70;;;;;;;6.93;89.14;98063.25;5064766;28;20037;-47
2022/12/30 18:04:57;;;;;;;16.08;3.33;;;;;;;6.92;88.91;98074.63;5048198;28;20033;-47
2022/12/30 18:07:25;;;;;;;16.48;3.35;;;;;;;6.93;89.17;98087.22;5052398;28;20076;-47
2022/12/30 18:10:46;;;;;;;9.88;3.58;;;;;;;6.95;89.01;98082.91;5049618;28;20094;-48
2022/12/30 18:13:14;;;;;;;8.43;3.45;;;;;;;6.93;89.07;98076.22;5047178;28;20134;-47
2022/12/30 18:16:10;;;;;;;11.73;3.70;;;;;;;6.90;89.18;98085.22;5049994;28;20418;-50
2022/12/30 18:19:09;;;;;;;9.77;3.20;;;;;;;6.88;89.42;98084.84;5047819;28;20512;-47
2022/12/30 18:32:58;;;;;;;13.05;3.25;;;;;;;6.90;89.52;98115.50;5046996;28;20029;-46
2022/12/30 18:35:24;;;;;;;14.52;5.05;;;;;;;6.92;89.47;98127.69;5047738;28;20076;-47
2022/12/30 18:42:03;;;;;;;11.60;2.92;;;;;;;6.96;89.47;98144.22;5045269;28;20068;-47
2022/12/30 18:45:03;;;;;;;19.75;5.65;;;;;;;6.98;89.59;98136.34;5046227;28;20394;-46
2022/12/30 18:51:18;;;;;;;10.65;3.47;;;;;;;6.94;89.83;98152.03;5050512;28;20406;-54
2022/12/30 18:54:10;;;;;;;17.35;6.30;;;;;;;6.93;89.83;98156.78;5046293;28;20044;-48
2022/12/30 18:56:37;;;;;;;14.98;6.10;;;;;;;6.92;89.70;98151.63;5046374;28;20090;-49
2022/12/30 18:59:23;;;;;;;21.30;9.65;;;;;;;6.91;89.93;98150.06;5048256;28;20406;-46